Time;durP1;ratioP1;P1;durP2;ratioP2;P2;SDS_P1;SDS_P2;PMS_P1;PMS_P2;Temp;Humidity;BMP_temperature;BMP_pressure;BME280_temperature;BME280_humidity;BME280_pressure;Samples;Min_cycle;Max_cycle;Signal;HPM_P1;HPM_P2
2021/09/02 00:00:30;;;;;;;;;14.50;12.75;;;;;16.37;59.17;101739.69;5098670;27;45312;-59
2021/09/02 00:02:55;;;;;;;;;15.00;12.00;;;;;16.35;59.38;101741.66;5097566;27;70696;-61
2021/09/02 00:05:20;;;;;;;;;16.50;13.25;;;;;16.31;59.54;101741.09;5098413;27;50208;-61
2021/09/02 00:07:46;;;;;;;;;20.00;12.50;;;;;16.26;59.30;101744.19;5097889;27;72541;-59
2021/09/02 00:10:11;;;;;;;;;19.00;15.50;;;;;16.24;59.68;101742.66;5098897;27;45295;-60
2021/09/02 00:12:37;;;;;;;;;19.25;13.25;;;;;16.23;59.94;101741.00;5098746;27;45540;-60
2021/09/02 00:15:03;;;;;;;;;15.00;13.50;;;;;16.20;59.70;101736.78;5098335;27;57955;-60
2021/09/02 00:17:28;;;;;;;;;17.50;13.75;;;;;16.20;59.37;101744.75;5098588;27;46941;-61
2021/09/02 00:19:54;;;;;;;;;15.25;14.00;;;;;16.20;59.75;101742.09;5097812;27;68658;-60
2021/09/02 00:22:20;;;;;;;;;13.50;12.25;;;;;16.21;59.38;101743.75;5097359;27;68741;-60
2021/09/02 00:24:45;;;;;;;;;17.25;12.25;;;;;16.18;59.41;101738.75;5098558;27;45312;-60
2021/09/02 00:27:10;;;;;;;;;18.75;14.25;;;;;16.17;59.79;101740.56;5097354;27;73197;-61
2021/09/02 00:29:36;;;;;;;;;13.50;12.50;;;;;16.17;59.84;101737.06;5097666;27;69528;-61
2021/09/02 00:32:01;;;;;;;;;18.75;12.00;;;;;16.15;59.81;101731.94;5097607;27;71443;-60
2021/09/02 00:34:26;;;;;;;;;15.50;13.25;;;;;16.15;59.84;101729.28;5097653;27;63055;-60
2021/09/02 00:36:52;;;;;;;;;13.75;13.00;;;;;16.16;59.43;101730.94;5097810;27;63996;-60
2021/09/02 00:39:17;;;;;;;;;17.25;13.50;;;;;16.13;59.53;101723.28;5097644;27;62997;-60
2021/09/02 00:41:42;;;;;;;;;13.50;12.25;;;;;16.12;59.75;101713.66;5097368;27;70441;-60
2021/09/02 00:44:08;;;;;;;;;15.50;12.50;;;;;16.13;59.67;101711.84;5097296;27;76142;-60
2021/09/02 00:46:33;;;;;;;;;15.25;12.25;;;;;16.12;59.85;101705.69;5098116;27;48639;-60
2021/09/02 00:48:59;;;;;;;;;16.50;14.25;;;;;16.12;59.70;101703.06;5097218;27;68390;-60
2021/09/02 00:51:24;;;;;;;;;14.50;13.00;;;;;16.12;59.68;101704.88;5098468;27;45224;-59
2021/09/02 00:53:54;;;;;;;;;13.25;12.00;;;;;16.14;60.18;101705.56;5097026;27;72320;-60
2021/09/02 00:56:19;;;;;;;;;15.75;12.75;;;;;16.13;59.76;101704.72;5098052;27;45374;-61
2021/09/02 00:58:46;;;;;;;;;15.75;13.00;;;;;16.13;59.80;101709.22;5097787;27;51692;-61
2021/09/02 01:01:11;;;;;;;;;13.25;12.50;;;;;16.11;59.94;101706.69;5098033;27;45779;-60
2021/09/02 01:03:37;;;;;;;;;17.75;13.25;;;;;16.12;59.70;101705.69;5097124;27;46139;-60
2021/09/02 01:06:03;;;;;;;;;18.75;14.50;;;;;16.12;59.74;101707.53;5097906;27;45185;-61
2021/09/02 01:08:29;;;;;;;;;18.75;16.50;;;;;16.10;59.89;101712.97;5096149;27;45240;-60
2021/09/02 01:10:54;;;;;;;;;15.50;14.50;;;;;16.10;59.90;101709.50;5097046;27;69794;-61
2021/09/02 01:13:19;;;;;;;;;14.50;14.00;;;;;16.06;59.86;101708.94;5096808;27;74552;-61
2021/09/02 01:15:45;;;;;;;;;18.00;14.25;;;;;16.02;59.68;101705.75;5097187;27;59511;-60
2021/09/02 01:18:10;;;;;;;;;16.25;14.50;;;;;15.97;59.97;101710.63;5097088;27;60256;-60
2021/09/02 01:20:36;;;;;;;;;15.75;13.75;;;;;15.93;59.81;101709.25;5097483;27;45667;-61
2021/09/02 01:23:02;;;;;;;;;18.25;17.25;;;;;15.87;60.07;101709.81;5096886;27;67633;-60
2021/09/02 01:25:32;;;;;;;;;14.25;12.25;;;;;15.81;60.37;101713.84;5097662;27;46031;-60
2021/09/02 01:27:59;;;;;;;;;17.50;14.75;;;;;15.78;60.33;101706.16;5097723;27;45262;-60
2021/09/02 01:30:24;;;;;;;;;18.50;16.00;;;;;15.77;60.70;101708.94;5079534;27;45574;-60
2021/09/02 01:32:50;;;;;;;;;14.00;13.25;;;;;15.74;60.65;101712.72;5096583;27;69907;-60
2021/09/02 01:35:16;;;;;;;;;17.00;13.00;;;;;15.73;60.42;101705.75;5097468;27;45245;-61
2021/09/02 01:37:47;;;;;;;;;16.75;15.50;;;;;15.72;60.50;101701.44;5097404;27;45236;-60
2021/09/02 01:40:17;;;;;;;;;17.75;16.00;;;;;15.72;60.55;101696.97;5097664;27;45505;-60
2021/09/02 01:42:43;;;;;;;;;18.75;13.00;;;;;15.71;60.69;101684.69;5079728;27;45525;-60
2021/09/02 01:45:08;;;;;;;;;15.00;14.00;;;;;15.69;60.75;101675.22;5096458;27;70845;-60
2021/09/02 01:47:34;;;;;;;;;15.75;14.25;;;;;15.67;60.65;101685.94;5097376;27;45294;-61
2021/09/02 01:50:08;;;;;;;;;18.25;16.50;;;;;15.65;60.58;101682.59;5096357;27;70768;-61
2021/09/02 01:52:33;;;;;;;;;20.00;14.75;;;;;15.65;60.64;101679.13;5096500;27;45378;-60
2021/09/02 01:54:59;;;;;;;;;21.25;16.25;;;;;15.64;60.64;101680.94;5096788;27;55113;-60
2021/09/02 01:57:24;;;;;;;;;21.25;14.75;;;;;15.60;60.89;101686.66;5097431;27;45717;-60
2021/09/02 01:59:49;;;;;;;;;17.00;12.25;;;;;15.56;60.77;101684.28;5096255;27;66876;-61
2021/09/02 02:02:15;;;;;;;;;25.00;17.75;;;;;15.57;60.86;101685.97;5095945;27;74744;-61
2021/09/02 02:04:40;;;;;;;;;22.25;17.00;;;;;15.54;61.01;101686.25;5096099;27;67625;-61
2021/09/02 02:07:05;;;;;;;;;19.00;13.25;;;;;15.52;60.86;101690.03;5096347;27;65106;-60
2021/09/02 02:09:31;;;;;;;;;18.25;14.25;;;;;15.51;61.12;101683.06;5096401;27;60294;-60
2021/09/02 02:11:56;;;;;;;;;22.50;17.75;;;;;15.50;61.25;101679.56;5096064;27;70732;-60
2021/09/02 02:14:21;;;;;;;;;20.25;17.75;;;;;15.50;61.19;101686.69;5095991;27;66588;-60
2021/09/02 02:16:47;;;;;;;;;21.00;16.25;;;;;15.46;61.07;101675.50;5078684;27;45527;-61
2021/09/02 02:19:12;;;;;;;;;19.50;16.00;;;;;15.46;61.20;101672.84;5096725;27;45413;-60
2021/09/02 02:21:38;;;;;;;;;21.50;15.00;;;;;15.47;61.42;101677.19;5095306;27;74595;-60
2021/09/02 02:24:03;;;;;;;;;24.50;19.50;;;;;15.48;61.34;101673.56;5095757;27;71294;-60
2021/09/02 02:26:29;;;;;;;;;18.50;14.75;;;;;15.47;61.26;101677.19;5096725;27;45535;-60
2021/09/02 02:28:54;;;;;;;;;19.75;17.50;;;;;15.41;61.22;101670.66;5095740;27;65475;-61
2021/09/02 02:31:19;;;;;;;;;20.50;17.75;;;;;15.40;61.62;101668.13;5096325;27;55425;-58
2021/09/02 02:33:45;;;;;;;;;22.00;15.75;;;;;15.39;61.56;101658.50;5095377;27;73193;-60
2021/09/02 02:36:10;;;;;;;;;20.00;17.00;;;;;15.39;61.63;101658.50;5096275;27;46901;-60
2021/09/02 02:38:36;;;;;;;;;23.75;19.00;;;;;15.38;61.38;101654.19;5095766;27;63039;-60
2021/09/02 02:41:01;;;;;;;;;20.50;18.00;;;;;15.39;61.45;101658.50;5095194;27;75944;-60
2021/09/02 02:43:26;;;;;;;;;20.75;19.75;;;;;15.38;61.56;101651.53;5095450;27;67122;-59
2021/09/02 02:45:53;;;;;;;;;24.25;17.25;;;;;15.36;61.64;101649.03;5095399;27;69414;-60
2021/09/02 02:48:19;;;;;;;;;18.50;17.50;;;;;15.35;61.75;101651.84;5096366;27;45349;-60
2021/09/02 02:50:44;;;;;;;;;21.75;17.00;;;;;15.33;61.79;101646.66;5095249;27;71984;-59
2021/09/02 02:53:09;;;;;;;;;21.25;17.50;;;;;15.33;61.50;101643.19;5095095;27;73188;-60
2021/09/02 02:55:35;;;;;;;;;21.50;18.50;;;;;15.34;61.61;101645.69;5095643;27;61013;-60
2021/09/02 02:58:00;;;;;;;;;21.50;17.50;;;;;15.33;61.35;101644.03;5095441;27;66287;-60
2021/09/02 03:00:25;;;;;;;;;20.25;17.50;;;;;15.33;61.50;101643.19;5095237;27;70270;-60
2021/09/02 03:02:51;;;;;;;;;22.50;17.50;;;;;15.31;61.38;101634.56;5095392;27;64058;-61
2021/09/02 03:05:16;;;;;;;;;25.50;19.00;;;;;15.30;61.73;101631.06;5078223;27;45493;-60
2021/09/02 03:07:42;;;;;;;;;20.75;18.00;;;;;15.30;61.67;101635.53;5096310;27;45394;-61
2021/09/02 03:10:07;;;;;;;;;20.00;18.00;;;;;15.26;61.88;101633.16;5094951;27;75568;-60
2021/09/02 03:12:34;;;;;;;;;20.50;15.75;;;;;15.23;61.98;101636.09;5095297;27;45382;-60
2021/09/02 03:15:00;;;;;;;;;23.00;19.00;;;;;15.19;61.81;101637.34;5094539;27;45464;-61
2021/09/02 03:17:25;;;;;;;;;18.75;17.25;;;;;15.19;61.85;101639.13;5096300;27;45354;-61
2021/09/02 03:19:50;;;;;;;;;21.50;17.25;;;;;15.19;61.96;101639.13;5095337;27;68685;-60
2021/09/02 03:22:16;;;;;;;;;22.50;16.75;;;;;15.18;61.88;101640.13;5095851;27;45179;-61
2021/09/02 03:24:41;;;;;;;;;24.25;19.00;;;;;15.19;61.88;101649.72;5095153;27;68263;-61
2021/09/02 03:27:06;;;;;;;;;23.75;16.75;;;;;15.17;62.19;101649.88;5095272;27;66411;-60
2021/09/02 03:29:32;;;;;;;;;24.75;20.25;;;;;15.14;61.84;101650.97;5096028;27;46590;-59
2021/09/02 03:31:57;;;;;;;;;26.50;19.75;;;;;15.13;62.18;101643.19;5097025;27;45380;-60
2021/09/02 03:34:22;;;;;;;;;25.25;20.50;;;;;15.11;61.80;101640.66;5098410;27;66947;-60
2021/09/02 03:36:49;;;;;;;;;21.75;17.75;;;;;15.08;62.26;101640.13;5098595;27;67488;-60
2021/09/02 03:39:14;;;;;;;;;22.25;19.00;;;;;15.05;62.32;101635.97;5099425;27;46008;-60
2021/09/02 03:41:40;;;;;;;;;27.75;20.00;;;;;15.03;61.86;101626.47;5098494;27;45326;-61
2021/09/02 03:44:06;;;;;;;;;25.25;19.25;;;;;14.98;62.19;101622.41;5099152;27;45294;-60
2021/09/02 03:46:31;;;;;;;;;23.75;18.75;;;;;14.96;62.12;101626.19;5098590;27;60274;-60
2021/09/02 03:48:56;;;;;;;;;22.00;18.00;;;;;14.92;62.41;101617.69;5097996;27;74599;-59
2021/09/02 03:51:22;;;;;;;;;19.00;18.25;;;;;14.88;62.25;101621.56;5098343;27;65228;-60
2021/09/02 03:53:47;;;;;;;;;20.75;19.75;;;;;14.83;62.60;101624.63;5098279;27;66624;-60
2021/09/02 03:56:12;;;;;;;;;27.50;22.25;;;;;14.81;62.53;101618.66;5097988;27;70452;-60
2021/09/02 03:58:38;;;;;;;;;19.50;17.50;;;;;14.77;62.34;101616.44;5098074;27;71737;-60
2021/09/02 04:01:03;;;;;;;;;23.75;19.00;;;;;14.76;63.11;101609.47;5079580;27;73192;-60
2021/09/02 04:03:29;;;;;;;;;26.50;20.00;;;;;14.73;62.89;101597.34;5098620;27;50111;-61
2021/09/02 04:05:54;;;;;;;;;20.25;16.25;;;;;14.72;63.51;101600.94;5098312;27;64737;-60
2021/09/02 04:08:19;;;;;;;;;20.50;16.25;;;;;14.72;63.03;101608.06;5098802;27;45901;-60
2021/09/02 04:10:45;;;;;;;;;21.75;17.75;;;;;14.71;63.02;101601.09;5098912;27;45312;-59
2021/09/02 04:13:10;;;;;;;;;27.25;21.00;;;;;14.71;63.42;101609.03;5098937;27;45421;-61
2021/09/02 04:15:36;;;;;;;;;24.50;20.50;;;;;14.71;63.14;101617.78;5098180;27;62495;-61
2021/09/02 04:18:01;;;;;;;;;25.25;20.50;;;;;14.70;63.40;101621.41;5098229;27;56903;-60
2021/09/02 04:20:26;;;;;;;;;23.50;19.75;;;;;14.71;63.26;101625.72;5097616;27;71616;-60
2021/09/02 04:22:52;;;;;;;;;26.75;21.50;;;;;14.73;63.31;101625.59;5098420;27;45289;-60
2021/09/02 04:25:18;;;;;;;;;27.00;22.25;;;;;14.74;63.38;101627.28;5098704;27;45903;-60
2021/09/02 04:27:44;;;;;;;;;23.25;18.75;;;;;14.75;63.10;101635.06;5098606;27;45900;-61
2021/09/02 04:30:10;;;;;;;;;31.75;20.25;;;;;14.75;62.99;101628.97;5098597;27;45418;-61
2021/09/02 04:32:35;;;;;;;;;24.75;21.00;;;;;14.75;62.90;101640.34;5098564;27;45221;-60
2021/09/02 04:35:00;;;;;;;;;30.00;23.00;;;;;14.75;62.93;101639.53;5097730;27;66359;-60
2021/09/02 04:37:26;;;;;;;;;25.00;22.50;;;;;14.72;62.70;101632.69;5098377;27;46026;-60
2021/09/02 04:39:51;;;;;;;;;21.50;20.25;;;;;14.71;63.08;101632.84;5097498;27;65715;-60
2021/09/02 04:42:16;;;;;;;;;31.50;26.00;;;;;14.71;63.03;101633.66;5097687;27;61643;-60
2021/09/02 04:44:42;;;;;;;;;33.25;29.00;;;;;14.68;62.77;101629.47;5097404;27;68111;-60
2021/09/02 04:47:07;;;;;;;;;33.75;28.50;;;;;14.62;63.02;101635.28;5097320;27;73932;-60
2021/09/02 04:49:33;;;;;;;;;30.75;25.50;;;;;14.59;63.27;101640.00;5097291;27;66813;-60
2021/09/02 04:51:58;;;;;;;;;28.75;23.75;;;;;14.54;63.60;101637.78;5097327;27;69184;-59
2021/09/02 04:54:23;;;;;;;;;37.50;26.25;;;;;14.52;63.25;101637.06;5097203;27;64853;-60
2021/09/02 04:56:49;;;;;;;;;31.25;26.75;;;;;14.51;63.30;101632.75;5096996;27;72702;-59
2021/09/02 04:59:14;;;;;;;;;35.25;26.25;;;;;14.49;63.50;101634.69;5097109;27;70163;-60
2021/09/02 05:01:39;;;;;;;;;33.75;27.25;;;;;14.48;63.76;101633.03;5097541;27;54324;-60
2021/09/02 05:04:05;;;;;;;;;33.50;29.00;;;;;14.49;63.66;101632.06;5097903;27;45219;-60
2021/09/02 05:06:30;;;;;;;;;34.00;29.25;;;;;14.50;63.29;101624.00;5096712;27;73182;-60
2021/09/02 05:08:55;;;;;;;;;41.00;30.25;;;;;14.51;63.61;101628.31;5096969;27;69222;-59
2021/09/02 05:11:21;;;;;;;;;42.00;33.00;;;;;14.50;63.64;101636.38;5078662;27;67232;-60
2021/09/02 05:13:46;;;;;;;;;44.50;30.75;;;;;14.49;63.67;101634.69;5097732;27;45581;-60
2021/09/02 05:16:12;;;;;;;;;44.50;32.50;;;;;14.49;63.46;101634.69;5097267;27;52969;-60
2021/09/02 05:18:37;;;;;;;;;43.50;33.50;;;;;14.47;63.32;101626.06;5096646;27;69865;-60
2021/09/02 05:21:02;;;;;;;;;47.00;34.75;;;;;14.45;63.68;101623.56;5097326;27;47138;-61
2021/09/02 05:23:28;;;;;;;;;48.75;36.00;;;;;14.45;63.50;101628.00;5097766;27;45502;-59
2021/09/02 05:25:53;;;;;;;;;49.50;39.00;;;;;14.43;63.65;101619.38;5096433;27;71049;-60
2021/09/02 05:28:19;;;;;;;;;45.50;33.25;;;;;14.42;63.27;101623.84;5097498;27;45421;-61
2021/09/02 05:30:44;;;;;;;;;40.00;32.00;;;;;14.38;63.74;101623.25;5096924;27;59222;-61
2021/09/02 05:33:09;;;;;;;;;45.75;31.00;;;;;14.38;63.73;101630.34;5097170;27;47777;-60
2021/09/02 05:35:35;;;;;;;;;34.75;29.50;;;;;14.38;64.09;101631.19;5096307;27;75185;-60
2021/09/02 05:38:00;;;;;;;;;32.25;26.75;;;;;14.37;63.69;101634.78;5096653;27;66268;-60
2021/09/02 05:40:25;;;;;;;;;40.25;31.25;;;;;14.37;63.57;101632.16;5096377;27;69287;-60
2021/09/02 05:42:51;;;;;;;;;42.25;33.00;;;;;14.39;64.08;101624.91;5096250;27;69491;-60
2021/09/02 05:45:16;;;;;;;;;34.25;29.75;;;;;14.39;63.99;101614.34;5096143;27;75524;-60
2021/09/02 05:47:41;;;;;;;;;35.75;30.00;;;;;14.40;63.92;101610.72;5096224;27;71854;-60
2021/09/02 05:50:07;;;;;;;;;43.25;32.75;;;;;14.46;63.83;101616.47;5097458;27;45296;-60
2021/09/02 05:52:33;;;;;;;;;36.00;25.75;;;;;14.45;63.75;101613.00;5097343;27;45616;-60
2021/09/02 05:54:58;;;;;;;;;34.00;26.50;;;;;14.48;63.89;101614.50;5096519;27;45224;-60
2021/09/02 05:57:23;;;;;;;;;31.25;29.00;;;;;14.49;63.66;101619.69;5095914;27;71282;-60
2021/09/02 05:59:49;;;;;;;;;33.00;24.50;;;;;14.51;64.19;101612.44;5095980;27;66081;-60
2021/09/02 06:02:15;;;;;;;;;31.25;24.25;;;;;14.58;63.77;101618.03;5097083;27;45597;-60
2021/09/02 06:04:40;;;;;;;;;31.00;26.25;;;;;14.62;63.42;101627.38;5096902;27;45245;-60
2021/09/02 06:07:06;;;;;;;;;36.50;27.25;;;;;14.67;63.76;101626.94;5096945;27;45297;-60
2021/09/02 06:09:31;;;;;;;;;22.25;19.75;;;;;14.71;63.09;101628.38;5086203;27;68283;-60
2021/09/02 06:11:56;;;;;;;;;26.00;24.25;;;;;14.78;63.54;101623.41;5085786;27;67013;-60
2021/09/02 06:14:22;;;;;;;;;29.75;23.75;;;;;14.85;63.31;101621.84;5084179;27;74480;-60
2021/09/02 06:16:47;;;;;;;;;28.50;23.00;;;;;14.92;62.98;101609.75;5084249;27;73155;-60
2021/09/02 06:19:12;;;;;;;;;25.00;24.75;;;;;14.97;62.77;101618.09;5082914;27;45443;-60
2021/09/02 06:21:38;;;;;;;;;28.75;24.50;;;;;15.03;62.51;101616.72;5083411;27;70377;-60
2021/09/02 06:24:04;;;;;;;;;29.25;24.75;;;;;15.06;62.57;101616.44;5084303;27;45510;-59
2021/09/02 06:26:29;;;;;;;;;29.75;26.25;;;;;15.11;62.50;101624.78;5082641;27;45483;-60
2021/09/02 06:28:54;;;;;;;;;29.00;23.50;;;;;15.20;62.53;101617.84;5082688;27;62001;-60
2021/09/02 06:31:20;;;;;;;;;32.25;28.00;;;;;15.30;62.45;101619.66;5081420;27;66521;-59
2021/09/02 06:33:45;;;;;;;;;34.00;23.75;;;;;15.39;61.97;101613.47;5082530;27;47900;-60
2021/09/02 06:36:11;;;;;;;;;26.50;25.50;;;;;15.46;62.01;101613.78;5081860;27;45381;-60
2021/09/02 06:38:36;;;;;;;;;30.75;25.25;;;;;15.54;61.67;101608.59;5063818;27;60448;-61
2021/09/02 06:41:02;;;;;;;;;26.75;25.25;;;;;15.62;61.26;101621.13;5085047;27;45498;-61
2021/09/02 06:43:27;;;;;;;;;32.25;26.25;;;;;15.67;61.30;101625.00;5080853;27;66960;-60
2021/09/02 06:45:52;;;;;;;;;36.50;27.00;;;;;15.74;61.14;101620.00;5080447;27;73172;-60
2021/09/02 06:48:18;;;;;;;;;32.75;28.75;;;;;15.82;60.90;101620.13;5079412;27;45225;-60
2021/09/02 06:50:43;;;;;;;;;33.75;28.25;;;;;15.92;60.80;101632.50;5081574;27;45563;-60
2021/09/02 06:53:09;;;;;;;;;27.75;24.50;;;;;15.98;60.49;101638.09;5079899;27;45331;-60
2021/09/02 06:55:34;;;;;;;;;30.00;22.00;;;;;16.06;60.48;101631.22;5080140;27;72706;-60
2021/09/02 06:57:59;;;;;;;;;31.25;27.00;;;;;16.14;60.02;101640.09;5080251;27;45678;-61
2021/09/02 07:00:25;;;;;;;;;31.75;26.25;;;;;16.25;59.69;101628.47;5058338;28;60010;-60
2021/09/02 07:02:50;;;;;;;;;33.25;28.25;;;;;16.35;59.79;101624.94;5075039;28;65240;-60
2021/09/02 07:05:16;;;;;;;;;30.25;23.50;;;;;16.46;59.37;101632.72;5074920;28;70918;-60
2021/09/02 07:07:42;;;;;;;;;33.75;23.25;;;;;16.59;59.38;101624.38;5078209;28;45353;-60
2021/09/02 07:10:08;;;;;;;;;26.75;25.25;;;;;16.71;59.10;101622.34;5079594;28;45332;-61
2021/09/02 07:12:33;;;;;;;;;30.50;21.75;;;;;16.83;58.80;101629.13;5061145;28;45488;-61
2021/09/02 07:14:59;;;;;;;;;31.50;24.50;;;;;16.94;58.66;101627.22;5079024;28;45377;-61
2021/09/02 07:17:24;;;;;;;;;26.50;22.25;;;;;17.07;58.30;101619.75;5078222;28;69150;-61
2021/09/02 07:19:49;;;;;;;;;27.25;21.50;;;;;17.23;58.08;101634.16;5079188;28;45363;-61
2021/09/02 07:22:15;;;;;;;;;24.75;23.00;;;;;17.36;57.65;101626.63;5077925;28;74050;-61
2021/09/02 07:24:40;;;;;;;;;36.50;25.25;;;;;17.48;57.59;101635.19;5078616;28;56690;-60
2021/09/02 07:27:06;;;;;;;;;35.25;28.25;;;;;17.57;57.26;101630.78;5078886;28;45562;-60
2021/09/02 07:29:31;;;;;;;;;33.50;25.25;;;;;17.69;57.08;101628.69;5079114;28;45517;-60
2021/09/02 07:31:56;;;;;;;;;24.75;21.00;;;;;17.82;56.60;101626.44;5077679;28;75738;-60
2021/09/02 07:34:22;;;;;;;;;28.75;24.50;;;;;17.96;56.54;101622.38;5077990;28;71097;-60
2021/09/02 07:36:47;;;;;;;;;30.50;25.75;;;;;18.09;56.40;101632.59;5078132;28;64147;-61
2021/09/02 07:39:14;;;;;;;;;20.50;17.25;;;;;18.24;56.17;101633.66;5077890;28;69535;-61
2021/09/02 07:41:40;;;;;;;;;27.50;22.75;;;;;18.42;55.55;101637.22;5078834;28;46481;-60
2021/09/02 07:44:05;;;;;;;;;25.00;19.50;;;;;18.59;55.17;101638.94;5077740;28;71069;-61
2021/09/02 07:46:30;;;;;;;;;22.25;18.00;;;;;18.72;54.66;101641.13;5078207;28;64103;-61
2021/09/02 07:48:56;;;;;;;;;25.75;22.00;;;;;18.82;54.65;101639.16;5078971;28;45619;-61
2021/09/02 07:51:21;;;;;;;;;29.50;24.25;;;;;18.97;54.72;101634.03;5078011;28;63197;-61
2021/09/02 07:53:47;;;;;;;;;29.75;19.50;;;;;19.15;54.51;101645.53;5078592;28;45399;-60
2021/09/02 07:56:12;;;;;;;;;27.50;22.25;;;;;19.25;53.58;101635.56;5077726;28;67711;-59
2021/09/02 07:58:38;;;;;;;;;27.00;21.50;;;;;19.36;53.17;101629.03;5078653;28;45465;-61
2021/09/02 08:01:03;;;;;;;;;33.75;27.25;;;;;19.43;53.13;101630.91;5078541;28;46244;-60
2021/09/02 08:03:29;;;;;;;;;29.25;23.25;;;;;19.55;53.22;101635.88;5078451;28;45399;-60
2021/09/02 08:05:54;;;;;;;;;25.75;19.25;;;;;19.66;52.71;101635.50;5077646;28;66628;-59
2021/09/02 08:08:20;;;;;;;;;27.00;20.75;;;;;19.80;52.34;101619.81;5078408;28;45319;-61
2021/09/02 08:10:46;;;;;;;;;30.00;25.50;;;;;19.96;52.03;101625.16;5060169;28;46278;-60
2021/09/02 08:13:11;;;;;;;;;29.50;25.75;;;;;20.11;51.69;101630.59;5060194;28;45443;-61
2021/09/02 08:15:37;;;;;;;;;26.25;21.00;;;;;20.26;51.68;101637.88;5062545;27;62184;-61
2021/09/02 08:18:03;;;;;;;;;31.50;22.00;;;;;20.39;51.03;101630.16;5089378;27;45636;-61
2021/09/02 08:20:28;;;;;;;;;22.25;17.75;;;;;20.56;51.29;101630.91;5089989;27;46309;-61
2021/09/02 08:22:54;;;;;;;;;31.75;23.75;;;;;20.69;50.99;101629.47;5071079;27;45953;-61
2021/09/02 08:25:20;;;;;;;;;20.25;16.75;;;;;20.85;49.72;101628.56;5092068;27;46504;-61
2021/09/02 08:27:45;;;;;;;;;22.50;21.50;;;;;20.96;50.04;101630.00;5086104;27;45563;-61
2021/09/02 08:30:12;;;;;;;;;24.50;21.25;;;;;21.07;50.17;101626.91;5091194;27;46023;-62
2021/09/02 08:32:37;;;;;;;;;21.25;19.75;;;;;21.22;49.55;101632.28;5072876;27;45832;-61
2021/09/02 08:35:03;;;;;;;;;21.75;18.75;;;;;21.37;49.02;101626.16;5091477;27;56101;-61
2021/09/02 08:37:28;;;;;;;;;21.75;17.50;;;;;21.47;49.35;101624.03;5090236;27;45544;-61
2021/09/02 08:39:54;;;;;;;;;21.25;19.25;;;;;21.57;48.68;101629.16;5090423;27;46030;-61
2021/09/02 08:42:19;;;;;;;;;23.50;19.25;;;;;21.63;48.03;101623.09;5091243;27;45492;-61
2021/09/02 08:44:45;;;;;;;;;22.25;17.50;;;;;21.74;48.38;101619.13;5096010;27;45485;-60
2021/09/02 08:47:10;;;;;;;;;22.25;20.50;;;;;21.84;47.60;101616.16;5094949;27;57135;-61
2021/09/02 08:49:36;;;;;;;;;23.00;20.75;;;;;21.90;47.94;101610.09;5092952;27;45378;-60
2021/09/02 08:52:01;;;;;;;;;23.50;20.75;;;;;22.00;48.16;101620.50;5052797;27;74221;-61
2021/09/02 08:54:27;;;;;;;;;21.00;18.75;;;;;22.07;47.53;101613.38;5095349;27;45642;-61
2021/09/02 08:56:52;;;;;;;;;24.75;20.50;;;;;22.16;47.25;101601.56;5075718;27;45616;-61
2021/09/02 08:59:17;;;;;;;;;23.75;19.25;;;;;22.19;46.97;101608.41;5089523;27;50386;-61
2021/09/02 09:01:47;;;;;;;;;23.50;20.50;;;;;22.20;46.65;101605.53;5094785;27;61760;-62
2021/09/02 09:04:13;;;;;;;;;25.00;21.75;;;;;22.26;47.42;101603.94;5083128;27;45538;-61
2021/09/02 09:06:39;;;;;;;;;22.75;19.25;;;;;22.36;46.97;101599.13;5084469;27;45537;-61
2021/09/02 09:09:12;;;;;;;;;27.75;24.75;;;;;22.46;46.52;101592.66;5081538;27;45477;-61
2021/09/02 09:11:48;;;;;;;;;21.75;20.00;;;;;22.58;46.86;101585.78;5080398;27;45467;-61
2021/09/02 09:14:26;;;;;;;;;25.75;19.00;;;;;22.74;46.24;101591.94;5062519;27;45474;-61
2021/09/02 09:16:58;;;;;;;;;25.75;22.00;;;;;22.89;46.16;101586.50;5062326;27;45678;-61
2021/09/02 09:19:36;;;;;;;;;18.50;15.00;;;;;23.05;45.83;101588.06;5079157;27;45470;-61
2021/09/02 09:22:03;;;;;;;;;20.75;16.25;;;;;23.24;45.62;101586.59;5078171;27;45520;-60
2021/09/02 09:24:57;;;;;;;;;20.25;18.50;;;;;23.47;45.88;101580.16;5077928;27;45452;-60
2021/09/02 09:27:47;;;;;;;;;16.00;14.25;;;;;23.68;44.70;101585.44;5079954;27;45312;-59
2021/09/02 09:30:15;;;;;;;;;24.25;18.50;;;;;23.81;44.19;101573.97;5083174;27;47179;-61
2021/09/02 09:32:59;;;;;;;;;23.50;19.00;;;;;23.91;44.49;101578.94;5086465;27;45328;-61
2021/09/02 09:35:24;;;;;;;;;21.75;19.00;;;;;24.05;43.41;101574.50;5085054;27;45408;-61
2021/09/02 09:38:02;;;;;;;;;21.33;18.67;;;;;24.14;43.39;101578.66;5079275;27;45557;-61
2021/09/02 09:40:27;;;;;;;;;21.75;17.25;;;;;24.25;43.28;101584.47;5093193;27;46235;-60
2021/09/02 09:43:06;;;;;;;;;19.00;19.00;;;;;24.33;43.08;101578.94;5088459;27;72181;-60
2021/09/02 09:45:41;;;;;;;;;21.75;17.50;;;;;24.42;43.18;101575.00;5074974;27;45398;-61
2021/09/02 09:48:35;;;;;;;;;22.50;18.25;;;;;24.56;42.96;101570.50;5090952;27;45457;-59
2021/09/02 09:51:19;;;;;;;;;20.75;18.25;;;;;24.72;42.58;101563.09;5091109;27;46930;-60
2021/09/02 09:53:51;;;;;;;;;21.25;20.00;;;;;24.80;42.12;101567.47;5085762;27;45841;-60
2021/09/02 09:56:21;;;;;;;;;20.25;17.25;;;;;24.88;42.24;101553.81;5084280;27;45378;-61
2021/09/02 09:58:47;;;;;;;;;20.75;16.00;;;;;24.98;42.04;101550.69;5082065;27;45498;-60
2021/09/02 10:01:13;;;;;;;;;21.00;17.75;;;;;25.10;41.97;101542.81;5083332;27;45897;-60
2021/09/02 10:03:38;;;;;;;;;22.00;19.75;;;;;25.22;41.89;101546.53;5082324;27;45532;-60
2021/09/02 10:06:05;;;;;;;;;20.25;17.00;;;;;25.33;41.82;101543.22;5081705;27;45521;-61
2021/09/02 10:08:31;;;;;;;;;22.00;20.75;;;;;25.44;40.83;101544.44;5082095;27;45433;-61
2021/09/02 10:10:57;;;;;;;;;24.00;17.25;;;;;25.50;40.24;101550.84;5079325;27;46216;-60
2021/09/02 10:13:22;;;;;;;;;18.50;16.75;;;;;25.57;40.66;101543.56;5061698;27;58120;-61
2021/09/02 10:15:48;;;;;;;;;19.75;15.50;;;;;25.67;40.54;101553.06;5085834;27;45513;-60
2021/09/02 10:18:13;;;;;;;;;17.25;16.00;;;;;25.76;40.65;101538.34;5056619;27;66655;-62
2021/09/02 10:20:39;;;;;;;;;17.25;16.00;;;;;25.88;40.30;101541.19;5067963;27;71769;-61
2021/09/02 10:23:05;;;;;;;;;18.75;15.00;;;;;25.99;40.13;101534.28;5056710;27;73207;-61
2021/09/02 10:25:31;;;;;;;;;18.25;15.00;;;;;26.10;40.20;101536.31;5091333;27;45483;-61
2021/09/02 10:28:00;;;;;;;;;17.75;14.50;;;;;26.23;39.25;101540.81;5087917;27;45684;-61
2021/09/02 10:30:26;;;;;;;;;21.75;14.25;;;;;26.34;38.79;101542.00;5089585;27;45478;-60
2021/09/02 10:32:51;;;;;;;;;20.25;18.25;;;;;26.45;39.18;101527.84;5075857;27;45268;-60
2021/09/02 10:35:19;;;;;;;;;17.50;15.50;;;;;26.54;38.15;101535.63;5074882;27;45418;-63
2021/09/02 10:37:45;;;;;;;;;16.00;13.00;;;;;26.61;38.09;101526.47;5088611;27;45366;-61
2021/09/02 10:40:16;;;;;;;;;15.75;14.75;;;;;26.75;37.98;101529.88;5090772;27;46187;-61
2021/09/02 10:42:57;;;;;;;;;13.25;11.25;;;;;26.91;38.44;101519.63;5089087;27;46030;-62
2021/09/02 10:45:25;;;;;;;;;15.50;12.00;;;;;27.06;37.70;101527.34;5091859;27;45380;-61
2021/09/02 10:47:54;;;;;;;;;13.25;12.25;;;;;27.14;36.94;101521.69;5072755;27;45439;-60
2021/09/02 10:50:23;;;;;;;;;13.25;11.00;;;;;27.20;36.84;101526.19;5074650;27;45394;-61
2021/09/02 10:52:49;;;;;;;;;18.50;16.50;;;;;27.25;36.24;101525.50;5090141;27;50396;-60
2021/09/02 10:55:33;;;;;;;;;14.00;13.00;;;;;27.29;36.32;101521.31;5073030;27;45476;-61
2021/09/02 10:58:01;;;;;;;;;14.00;14.00;;;;;27.29;36.55;101528.59;5088553;27;45605;-61
2021/09/02 11:00:45;;;;;;;;;15.00;12.25;;;;;27.31;35.99;101513.81;5087783;27;45528;-61
2021/09/02 11:03:17;;;;;;;;;14.50;12.75;;;;;27.37;36.34;101521.00;5088685;27;46022;-60
2021/09/02 11:05:53;;;;;;;;;15.50;13.25;;;;;27.49;35.57;101520.31;5069704;27;45478;-61